NTR weather

Del Norte International Airport
Nuevo León, Mexico

Public forecast

Using degrees Celsius for public forecast. Weather courtesy of forecast.io.

Current aviation weather report (METAR) for Del Norte International Airport

Report is more than 6 hours old.

Retrieved 2020/02/21 05:44 UTC (7 hours ago):

MMAN 210544Z 36015KT 3SM -DZ BR BKN010 OVC012 08/06 A3062 RMK SLP/// 5//// 9// 60015 8/5//

Aviation forecast (TAF) for Del Norte International Airport

Retrieved 2020/02/21 06:30 UTC (6 hours ago):

TAF COR TAF COR MMAN 210527Z 2106/2206 02010KT 3SM -DZ BR BKN008 OVC010 TEMPO 2110/2114 1SM BR -DZ OVC005 FM211600 03010KT 3SM HZ BKN015 BKN050 FM211800 34010KT 5SM HZ BKN015 BKN050 FM220300 13010KT 6SM HZ SCT015 BKN050